Time;durP1;ratioP1;P1;durP2;ratioP2;P2;SDS_P1;SDS_P2;PMS_P1;PMS_P2;Temp;Humidity;BMP_temperature;BMP_pressure;BME280_temperature;BME280_humidity;BME280_pressure;Samples;Min_cycle;Max_cycle;Signal;HPM_P1;HPM_P2
2022/05/06 00:02:24;;;;;;;8.57;7.53;;;;;;;12.52;100.00;99685.63;5013426;28;20244;-85
2022/05/06 00:04:54;;;;;;;8.33;7.63;;;;;;;12.45;100.00;99687.63;5014690;28;20196;-86
2022/05/06 00:07:21;;;;;;;8.20;7.40;;;;;;;12.41;100.00;99689.94;5013444;28;20247;-86
2022/05/06 00:09:48;;;;;;;7.60;6.97;;;;;;;12.34;100.00;99686.53;5012832;28;20195;-85
2022/05/06 00:12:18;;;;;;;8.50;7.73;;;;;;;12.27;100.00;99688.50;5013518;28;20232;-85
2022/05/06 00:14:46;;;;;;;8.10;7.40;;;;;;;12.24;100.00;99689.78;5014147;28;20221;-87
2022/05/06 00:17:13;;;;;;;8.07;7.33;;;;;;;12.17;100.00;99693.59;5012378;28;20287;-88
2022/05/06 00:19:42;;;;;;;8.53;7.73;;;;;;;12.11;100.00;99689.97;4981520;28;20213;-88
2022/05/06 00:22:10;;;;;;;8.00;7.30;;;;;;;12.07;100.00;99686.09;4997620;28;20192;-87
2022/05/06 00:24:38;;;;;;;7.93;7.23;;;;;;;12.02;100.00;99685.97;5013655;28;20189;-87
2022/05/06 00:27:05;;;;;;;7.97;7.30;;;;;;;12.00;100.00;99693.41;5014657;28;20684;-87
2022/05/06 00:29:31;;;;;;;8.70;7.87;;;;;;;11.95;100.00;99687.91;5013062;28;20184;-86
2022/05/06 00:31:58;;;;;;;8.33;7.63;;;;;;;11.93;100.00;99687.31;5012784;28;20195;-87
2022/05/06 00:34:25;;;;;;;8.23;7.47;;;;;;;11.89;100.00;99683.47;5012326;28;20197;-84
2022/05/06 00:36:52;;;;;;;8.07;7.47;;;;;;;11.86;100.00;99682.03;4995833;28;20275;-85
2022/05/06 00:39:19;;;;;;;7.60;6.90;;;;;;;11.86;100.00;99687.41;5012820;28;20216;-85
2022/05/06 00:41:46;;;;;;;8.20;7.50;;;;;;;11.84;100.00;99681.44;5013129;28;20215;-85
2022/05/06 00:44:13;;;;;;;8.30;7.60;;;;;;;11.83;100.00;99682.50;5011828;28;20181;-84
2022/05/06 00:46:39;;;;;;;8.73;7.80;;;;;;;11.82;100.00;99682.72;5028571;28;20224;-82
2022/05/06 00:49:09;;;;;;;8.87;8.07;;;;;;;11.81;100.00;99692.63;5012264;28;20204;-84
2022/05/06 00:51:38;;;;;;;8.27;7.57;;;;;;;11.82;100.00;99696.13;5012917;28;20196;-87
2022/05/06 00:54:06;;;;;;;8.93;8.10;;;;;;;11.82;100.00;99688.06;4996959;28;20282;-86
2022/05/06 00:56:33;;;;;;;8.43;7.67;;;;;;;11.83;100.00;99692.41;4980618;28;20207;-86
2022/05/06 01:01:58;;;;;;;8.30;7.60;;;;;;;11.84;100.00;99694.88;5160432;23;20248;-84
2022/05/06 01:04:48;;;;;;;8.13;7.53;;;;;;;11.81;100.00;99695.31;4987234;23;20247;-85
2022/05/06 01:07:17;;;;;;;8.07;7.37;;;;;;;11.81;100.00;99702.53;4924831;29;20193;-86
2022/05/06 01:10:02;;;;;;;8.80;7.90;;;;;;;11.80;100.00;99708.97;5090825;23;20321;-87
2022/05/06 01:15:43;;;;;;;8.27;7.57;;;;;;;11.73;100.00;99694.78;5038818;23;20247;-85
2022/05/06 01:18:17;;;;;;;9.13;8.23;;;;;;;11.65;100.00;99703.97;4900866;29;20203;-85
2022/05/06 01:20:51;;;;;;;8.70;7.90;;;;;;;11.58;100.00;99697.00;4917007;29;20208;-85
2022/05/06 01:23:20;;;;;;;8.70;7.93;;;;;;;11.52;100.00;99693.38;4885874;29;20197;-85
2022/05/06 01:25:47;;;;;;;8.10;7.40;;;;;;;11.48;100.00;99701.03;4901594;29;20215;-84
2022/05/06 01:28:14;;;;;;;8.07;7.47;;;;;;;11.48;100.00;99695.66;4908817;29;20203;-84
2022/05/06 01:34:22;;;;;;;7.87;7.23;;;;;;;11.37;100.00;99703.66;5161980;23;20240;-82
2022/05/06 01:36:52;;;;;;;8.10;7.50;;;;;;;11.35;100.00;99692.31;4922023;29;20206;-84
2022/05/06 01:39:22;;;;;;;7.50;6.90;;;;;;;11.34;100.00;99696.84;4929981;29;20226;-83
2022/05/06 01:41:53;;;;;;;8.20;7.50;;;;;;;11.33;100.00;99702.47;4904297;29;20188;-82
2022/05/06 05:03:59;;;;;;;8.30;7.60;;;;;;;12.00;100.00;99771.28;5565535;24;21370;-83
2022/05/06 05:09:53;;;;;;;9.27;8.47;;;;;;;12.19;100.00;99762.16;5216966;24;20218;-83
2022/05/06 05:12:24;;;;;;;8.80;7.93;;;;;;;12.33;100.00;99776.22;4827933;29;20218;-83
2022/05/06 05:15:24;;;;;;;7.80;7.20;;;;;;;12.44;100.00;99786.22;5101335;24;20256;-84
2022/05/06 05:20:59;;;;;;;7.50;6.80;;;;;;;12.64;100.00;99777.88;4927290;24;20241;-83
2022/05/06 05:23:29;;;;;;;7.57;6.87;;;;;;;12.70;100.00;99793.06;4811264;29;20291;-83
2022/05/06 05:25:56;;;;;;;7.57;6.83;;;;;;;12.78;100.00;99785.50;4809101;29;20286;-84
2022/05/06 05:28:24;;;;;;;7.30;6.80;;;;;;;12.87;100.00;99788.69;4824548;29;20243;-85
2022/05/06 05:30:51;;;;;;;7.63;7.03;;;;;;;13.00;100.00;99791.16;4808206;29;20202;-85
2022/05/06 05:33:18;;;;;;;7.50;6.90;;;;;;;13.12;100.00;99796.59;4808302;29;20630;-85
2022/05/06 05:35:51;;;;;;;8.43;7.53;;;;;;;13.21;100.00;99805.94;4793929;29;20210;-87
2022/05/06 05:38:18;;;;;;;8.03;7.23;;;;;;;13.28;100.00;99800.47;4807722;29;20198;-86
2022/05/06 05:40:46;;;;;;;8.43;7.60;;;;;;;13.34;100.00;99808.44;4808241;29;20274;-87
2022/05/06 05:49:32;;;;;;;10.03;7.80;;;;;;;13.68;100.00;99801.41;4894275;24;20398;-90
2022/05/06 05:51:59;;;;;;;9.37;8.30;;;;;;;13.73;100.00;99803.38;4808880;29;20731;-91
2022/05/06 05:54:26;;;;;;;9.53;8.60;;;;;;;13.87;100.00;99791.31;4808666;29;20264;-90
2022/05/06 05:56:54;;;;;;;9.70;8.73;;;;;;;13.93;100.00;99793.06;4808680;29;20197;-91
2022/05/06 05:59:21;;;;;;;9.13;8.27;;;;;;;14.07;100.00;99794.44;4808404;29;20277;-90
2022/05/06 06:01:49;;;;;;;8.97;8.03;;;;;;;14.21;100.00;99801.19;4789641;29;20201;-91
2022/05/06 06:04:16;;;;;;;10.53;9.60;;;;;;;14.35;100.00;99801.72;4790522;29;20237;-90
2022/05/06 06:06:45;;;;;;;12.37;9.00;;;;;;;14.41;100.00;99803.50;4805142;29;20205;-91
2022/05/06 06:09:14;;;;;;;10.20;9.20;;;;;;;14.59;100.00;99808.72;4805262;29;20207;-91
2022/05/06 06:11:42;;;;;;;10.60;8.97;;;;;;;14.76;100.00;99817.66;4790637;29;20902;-90
2022/05/06 06:14:11;;;;;;;8.87;8.07;;;;;;;14.90;100.00;99812.75;4805753;29;20207;-90
2022/05/06 06:16:38;;;;;;;9.50;8.50;;;;;;;15.08;100.00;99803.63;4796364;29;20202;-91
2022/05/06 06:19:07;;;;;;;8.77;7.97;;;;;;;15.30;100.00;99818.84;4790763;29;20255;-90
2022/05/06 06:21:39;;;;;;;8.83;8.03;;;;;;;15.50;100.00;99817.53;4779739;29;20199;-91
2022/05/06 06:24:07;;;;;;;9.60;8.57;;;;;;;15.61;100.00;99817.47;4777554;29;20293;-90
2022/05/06 06:26:34;;;;;;;9.70;8.80;;;;;;;15.72;100.00;99821.16;4764202;29;20230;-91
2022/05/06 06:29:06;;;;;;;9.00;8.10;;;;;;;15.80;100.00;99826.94;4765158;29;20301;-90
2022/05/06 06:31:34;;;;;;;8.63;7.83;;;;;;;15.93;100.00;99835.75;4764041;29;20589;-92
2022/05/06 06:34:02;;;;;;;11.70;8.23;;;;;;;16.00;100.00;99829.09;4764261;29;20749;-90
2022/05/06 06:36:34;;;;;;;9.00;8.20;;;;;;;16.05;100.00;99829.16;4765322;29;20203;-87
2022/05/06 06:39:02;;;;;;;8.93;8.10;;;;;;;16.18;100.00;99825.28;4764051;29;20225;-93
2022/05/06 06:41:33;;;;;;;9.77;8.27;;;;;;;16.21;100.00;99817.47;4779104;29;20306;-93
2022/05/06 06:44:00;;;;;;;9.23;8.40;;;;;;;16.30;100.00;99807.03;4763795;29;20206;-93
2022/05/06 06:46:42;;;;;;;8.90;8.00;;;;;;;16.32;100.00;99806.78;4767289;29;20202;-92
2022/05/06 06:49:45;;;;;;;8.60;7.77;;;;;;;16.46;100.00;99811.56;4770364;29;20198;-93
2022/05/06 06:52:23;;;;;;;9.43;8.47;;;;;;;16.40;100.00;99811.75;4780032;29;20636;-93
2022/05/06 06:54:50;;;;;;;9.07;8.27;;;;;;;16.14;100.00;99816.03;4792388;29;20226;-93
2022/05/06 06:57:16;;;;;;;8.57;7.80;;;;;;;16.24;100.00;99814.25;4781328;29;20198;-93
2022/05/06 06:59:43;;;;;;;8.97;8.13;;;;;;;16.25;100.00;99813.19;4781288;29;20253;-93
2022/05/06 07:02:10;;;;;;;8.90;8.10;;;;;;;16.41;100.00;99821.50;4795940;29;20205;-91
2022/05/06 07:04:37;;;;;;;11.33;8.70;;;;;;;16.62;100.00;99816.06;4781300;29;20651;-93
2022/05/06 07:12:35;;;;;;;10.50;8.50;;;;;;;16.89;100.00;99815.28;4798016;29;20218;-93
2022/05/06 07:15:03;;;;;;;9.90;8.33;;;;;;;17.10;100.00;99815.19;4781373;29;20289;-93
2022/05/06 07:17:29;;;;;;;9.30;8.50;;;;;;;17.15;100.00;99814.44;4795939;29;20658;-93
2022/05/06 07:19:56;;;;;;;9.00;8.20;;;;;;;17.30;100.00;99814.56;4781157;29;20221;-93
2022/05/06 07:22:24;;;;;;;9.87;8.87;;;;;;;17.46;100.00;99821.72;4792202;29;20207;-93
2022/05/06 07:24:53;;;;;;;9.80;8.60;;;;;;;17.56;100.00;99824.50;4777883;29;20195;-92
2022/05/06 07:27:21;;;;;;;10.63;9.53;;;;;;;17.67;100.00;99813.75;4791763;29;20202;-93
2022/05/06 07:29:48;;;;;;;9.80;9.00;;;;;;;17.79;100.00;99811.66;4778101;29;20275;-93
2022/05/06 07:32:15;;;;;;;9.73;8.77;;;;;;;17.96;100.00;99817.75;4792279;29;20202;-93
2022/05/06 07:34:41;;;;;;;10.10;9.10;;;;;;;18.07;100.00;99832.97;4777584;29;20293;-93
2022/05/06 07:37:08;;;;;;;10.83;9.20;;;;;;;18.14;100.00;99822.72;4792622;29;20203;-93
2022/05/06 07:39:35;;;;;;;10.97;8.73;;;;;;;18.13;100.00;99817.53;4792816;29;20198;-93
2022/05/06 07:42:02;;;;;;;10.03;9.03;;;;;;;18.20;100.00;99804.53;4792377;29;20206;-93
2022/05/06 07:44:29;;;;;;;10.30;9.40;;;;;;;18.15;100.00;99816.19;4777621;29;20432;-92
2022/05/06 07:46:56;;;;;;;10.93;9.67;;;;;;;18.12;100.00;99821.31;4777833;29;20210;-93
2022/05/06 07:49:24;;;;;;;10.40;9.50;;;;;;;17.99;100.00;99820.72;4762408;29;20244;-92
2022/05/06 07:51:52;;;;;;;12.53;9.77;;;;;;;17.86;100.00;99828.53;4792730;29;20221;-93
2022/05/06 07:54:18;;;;;;;13.20;9.77;;;;;;;18.01;100.00;99823.16;4776897;29;20275;-93
2022/05/06 07:56:45;;;;;;;11.03;9.83;;;;;;;18.15;100.00;99820.81;4777233;29;20278;-93
2022/05/06 07:59:12;;;;;;;12.80;9.97;;;;;;;18.29;100.00;99817.31;4777043;29;20256;-92
2022/05/06 08:04:34;;;;;;;10.37;9.37;;;;;;;18.59;100.00;99822.06;4779403;29;20263;-92
2022/05/06 08:07:02;;;;;;;11.07;9.60;;;;;;;18.84;100.00;99819.44;4778217;29;20198;-90
2022/05/06 08:09:29;;;;;;;11.00;10.00;;;;;;;18.96;100.00;99826.50;4762115;29;20203;-92
2022/05/06 08:11:56;;;;;;;11.30;9.40;;;;;;;19.06;100.00;99821.91;4776743;29;20226;-92
2022/05/06 08:14:23;;;;;;;14.43;9.70;;;;;;;19.11;100.00;99821.09;4777229;29;20240;-92
2022/05/06 08:16:50;;;;;;;10.60;9.50;;;;;;;19.33;100.00;99832.50;4791603;29;20656;-91
2022/05/06 08:19:19;;;;;;;10.70;9.70;;;;;;;19.04;100.00;99831.38;4776855;29;20267;-91
2022/05/06 08:21:50;;;;;;;10.13;9.33;;;;;;;19.17;100.00;99828.16;4777078;29;20579;-92
2022/05/06 08:24:17;;;;;;;10.37;9.47;;;;;;;19.59;100.00;99834.16;4769787;29;20207;-92
2022/05/06 08:26:45;;;;;;;10.33;9.53;;;;;;;19.89;100.00;99837.88;4779971;29;20206;-92
2022/05/06 08:29:14;;;;;;;10.17;9.30;;;;;;;19.58;100.00;99840.69;4780198;29;20236;-92
2022/05/06 08:31:41;;;;;;;10.83;9.93;;;;;;;19.50;100.00;99843.13;4779898;29;20256;-93
2022/05/06 08:34:11;;;;;;;10.77;9.83;;;;;;;19.98;100.00;99839.78;4779875;29;20679;-92
2022/05/06 08:36:43;;;;;;;10.43;9.63;;;;;;;20.01;100.00;99841.16;4779700;29;20198;-92
2022/05/06 08:39:13;;;;;;;11.50;10.30;;;;;;;19.68;100.00;99839.84;4793797;29;20195;-93
2022/05/06 08:41:41;;;;;;;11.70;10.53;;;;;;;19.47;100.00;99836.31;4784100;29;20212;-91
2022/05/06 08:52:45;;;;;;;10.70;9.77;;;;;;;20.24;100.00;99829.63;4805946;29;20211;-89
2022/05/06 08:55:12;;;;;;;11.40;10.40;;;;;;;20.06;100.00;99833.75;4808994;29;20196;-91
2022/05/06 08:57:40;;;;;;;10.23;9.33;;;;;;;20.27;100.00;99839.13;4808862;29;20264;-91
2022/05/06 09:00:07;;;;;;;12.40;10.83;;;;;;;19.89;100.00;99833.28;4808766;29;20259;-91
2022/05/06 09:02:38;;;;;;;11.10;10.20;;;;;;;20.40;100.00;99844.00;4793534;29;20207;-92
2022/05/06 09:05:15;;;;;;;11.80;10.77;;;;;;;20.80;100.00;99841.09;4777230;29;20199;-91
2022/05/06 09:08:02;;;;;;;12.03;10.97;;;;;;;21.30;100.00;99841.88;4764800;29;20210;-91
2022/05/06 09:10:29;;;;;;;11.40;10.40;;;;;;;21.03;100.00;99836.88;4788052;29;20187;-89
2022/05/06 09:13:02;;;;;;;12.23;11.23;;;;;;;21.10;100.00;99834.63;4789606;29;20223;-89
2022/05/06 09:18:19;;;;;;;13.23;12.03;;;;;;;20.27;100.00;99844.59;4795560;29;20202;-91
2022/05/06 09:21:08;;;;;;;13.83;12.43;;;;;;;20.00;100.00;99842.22;4776259;29;20704;-90
2022/05/06 09:23:35;;;;;;;13.67;12.37;;;;;;;20.35;100.00;99847.56;4785171;29;20206;-89
2022/05/06 09:26:01;;;;;;;13.73;12.57;;;;;;;20.57;100.00;99841.78;4799508;29;20191;-90
2022/05/06 09:28:32;;;;;;;13.50;12.20;;;;;;;20.68;100.00;99840.59;4824159;29;20281;-91
2022/05/06 09:31:09;;;;;;;13.40;12.20;;;;;;;21.06;100.00;99841.75;4788776;29;20220;-90
2022/05/06 09:33:40;;;;;;;13.90;12.43;;;;;;;21.21;100.00;99829.94;4805827;29;20188;-90
2022/05/06 09:36:40;;;;;;;12.70;11.57;;;;;;;21.36;100.00;99838.00;4789598;29;20191;-89
2022/05/06 09:39:08;;;;;;;12.10;11.10;;;;;;;21.97;100.00;99837.47;4764157;29;20212;-89
2022/05/06 09:41:37;;;;;;;12.10;10.93;;;;;;;22.48;99.28;99843.94;4781239;29;20665;-88
2022/05/06 09:44:05;;;;;;;13.00;11.83;;;;;;;22.90;92.54;99842.31;4790393;29;20205;-88
2022/05/06 09:46:32;;;;;;;14.63;12.00;;;;;;;22.23;96.59;99842.34;4791067;29;20514;-88
2022/05/06 09:49:01;;;;;;;12.63;11.47;;;;;;;21.78;98.71;99843.63;4794432;29;20313;-87
2022/05/06 09:51:29;;;;;;;11.87;10.90;;;;;;;21.92;96.13;99843.75;4811855;29;20200;-90
2022/05/06 09:53:56;;;;;;;11.70;10.67;;;;;;;21.63;99.76;99843.75;4797033;29;20227;-91
2022/05/06 09:56:24;;;;;;;11.07;10.07;;;;;;;22.18;97.12;99836.13;4796257;29;20261;-89
2022/05/06 09:58:52;;;;;;;11.17;10.07;;;;;;;21.01;100.00;99841.78;4796640;29;20637;-90
2022/05/06 10:01:19;;;;;;;11.67;10.60;;;;;;;20.89;100.00;99833.97;4792834;29;20225;-91
2022/05/06 10:03:46;;;;;;;11.67;10.77;;;;;;;20.97;100.00;99827.91;4793470;29;20286;-92
2022/05/06 10:06:13;;;;;;;12.27;9.67;;;;;;;21.51;100.00;99825.03;4811270;29;20250;-89
2022/05/06 10:08:47;;;;;;;11.50;10.50;;;;;;;21.14;100.00;99824.03;4796513;29;20200;-90
2022/05/06 10:11:14;;;;;;;11.20;10.10;;;;;;;21.06;100.00;99828.94;4796601;29;20187;-91
2022/05/06 10:13:43;;;;;;;10.20;9.20;;;;;;;21.41;100.00;99843.41;4796756;29;20211;-91
2022/05/06 10:16:11;;;;;;;11.53;10.53;;;;;;;21.62;100.00;99844.84;4811809;29;20205;-90
2022/05/06 10:18:40;;;;;;;11.20;10.30;;;;;;;22.12;99.67;99846.28;4796902;29;20203;-90
2022/05/06 10:21:11;;;;;;;11.90;10.87;;;;;;;22.16;94.99;99843.78;4782044;29;20224;-91
2022/05/06 10:23:50;;;;;;;11.80;10.80;;;;;;;22.21;94.56;99841.00;4782174;29;20224;-91
2022/05/06 10:26:35;;;;;;;10.90;10.00;;;;;;;22.08;94.54;99836.22;4827487;29;20299;-91
2022/05/06 10:35:05;;;;;;;11.37;10.30;;;;;;;21.37;100.00;99829.53;4813752;29;20267;-91
2022/05/06 10:37:36;;;;;;;12.20;11.03;;;;;;;21.23;100.00;99822.31;4811278;29;20181;-90
2022/05/06 10:40:22;;;;;;;11.57;10.53;;;;;;;20.79;100.00;99816.88;4781901;29;20211;-91
2022/05/06 10:42:50;;;;;;;11.37;10.40;;;;;;;21.06;100.00;99815.31;4811926;29;20200;-91
2022/05/06 10:45:31;;;;;;;11.67;10.47;;;;;;;20.85;100.00;99837.53;4781869;29;20203;-90
2022/05/06 10:47:58;;;;;;;12.10;10.90;;;;;;;20.88;100.00;99856.84;4796724;29;20237;-91
2022/05/06 10:50:29;;;;;;;12.13;11.03;;;;;;;21.24;100.00;99864.78;4781448;29;20213;-92
2022/05/06 10:52:57;;;;;;;11.93;10.83;;;;;;;21.98;100.00;99858.97;4781901;29;20199;-91
2022/05/06 10:55:25;;;;;;;10.83;9.87;;;;;;;22.86;91.48;99858.50;4781315;29;20264;-91
2022/05/06 10:58:02;;;;;;;10.30;9.07;;;;;;;;;;4795965;29;20244;-90
2022/05/06 11:00:30;;;;;;;10.87;9.77;;;;;;;23.59;81.25;99866.94;4794841;29;20647;-90
2022/05/06 11:03:00;;;;;;;11.73;10.70;;;;;;;23.41;82.28;99862.28;4781277;29;20301;-90
2022/05/06 11:05:29;;;;;;;11.20;10.03;;;;;;;23.30;81.08;99855.34;4796032;29;20213;-90
2022/05/06 11:07:59;;;;;;;11.30;10.30;;;;;;;23.13;85.55;99853.16;4781557;29;20254;-90
2022/05/06 11:10:31;;;;;;;10.70;9.80;;;;;;;23.25;82.97;99848.03;4796124;29;20232;-91
2022/05/06 11:13:18;;;;;;;11.45;10.38;;;;;;;23.05;86.93;99850.28;4785856;29;20281;-91
2022/05/06 11:15:45;;;;;;;11.33;10.23;;;;;;;22.86;86.60;99844.84;4796096;29;20218;-91
2022/05/06 11:18:12;;;;;;;11.07;10.18;;;;;;;23.01;84.77;99843.78;4780580;29;20749;-90
2022/05/06 11:20:39;;;;;;;11.43;10.33;;;;;;;22.61;87.92;99842.41;4792957;29;20206;-88
2022/05/06 11:23:08;;;;;;;12.00;10.97;;;;;;;22.51;86.50;99837.88;4783707;29;20198;-91
2022/05/06 11:25:42;;;;;;;11.87;10.77;;;;;;;22.13;88.42;99844.34;4779330;29;20862;-92
2022/05/06 11:28:20;;;;;;;11.73;10.53;;;;;;;22.20;89.61;99850.28;4795189;29;20762;-92
2022/05/06 11:30:49;;;;;;;11.40;10.37;;;;;;;21.92;93.32;99849.22;4795728;29;20275;-92
2022/05/06 11:33:25;;;;;;;11.60;10.50;;;;;;;22.07;92.02;99846.31;4795394;29;20211;-91
2022/05/06 11:36:01;;;;;;;11.63;10.63;;;;;;;21.83;98.69;99848.22;4795409;29;20229;-93
2022/05/06 11:38:34;;;;;;;11.33;10.20;;;;;;;22.05;100.00;99845.81;4781459;29;20202;-92
2022/05/06 11:41:21;;;;;;;11.80;10.80;;;;;;;22.22;97.54;99842.63;4777379;29;20997;-92
2022/05/06 11:43:48;;;;;;;11.83;10.73;;;;;;;22.52;93.36;99844.97;4777444;29;20718;-92
2022/05/06 11:49:01;;;;;;;12.27;11.17;;;;;;;22.71;91.23;99854.03;4779805;29;20242;-93
2022/05/06 11:51:38;;;;;;;12.53;11.50;;;;;;;22.18;97.00;99856.03;4773755;29;20271;-93
2022/05/06 11:54:05;;;;;;;12.83;11.50;;;;;;;22.59;91.42;99859.06;4780508;29;20199;-93
2022/05/06 11:56:36;;;;;;;12.13;11.13;;;;;;;22.77;96.55;99860.22;4792149;29;20194;-90
2022/05/06 11:59:05;;;;;;;13.10;12.03;;;;;;;22.98;87.99;99847.91;4783198;29;20204;-90
2022/05/06 12:01:35;;;;;;;13.10;11.93;;;;;;;23.15;89.18;99852.84;4791460;29;20305;-89
2022/05/06 12:04:05;;;;;;;13.67;12.47;;;;;;;23.46;84.92;99851.31;4776914;29;20197;-89
2022/05/06 12:06:38;;;;;;;13.30;12.00;;;;;;;23.44;88.12;99860.88;4777143;29;20201;-89
2022/05/06 12:09:10;;;;;;;13.03;11.80;;;;;;;23.29;87.05;99861.91;4780725;29;20205;-87
2022/05/06 12:11:38;;;;;;;12.85;11.77;;;;;;;22.99;90.11;99865.94;4794763;29;20221;-89
2022/05/06 12:14:10;;;;;;;13.07;11.98;;;;;;;22.98;94.94;99867.03;4780302;29;20727;-88
2022/05/06 12:16:52;;;;;;;12.90;11.75;;;;;;;22.76;99.98;99872.28;4776864;29;20644;-89
2022/05/06 12:19:19;;;;;;;13.97;12.90;;;;;;;21.98;100.00;99861.69;4776962;29;20253;-89
2022/05/06 12:21:46;;;;;;;14.50;13.30;;;;;;;22.00;100.00;99875.88;4776851;29;20253;-89
2022/05/06 12:24:13;;;;;;;13.80;12.63;;;;;;;21.86;100.00;99862.06;4793825;29;20212;-88
2022/05/06 12:26:40;;;;;;;14.70;13.57;;;;;;;21.62;100.00;99869.41;4806451;29;20847;-88
2022/05/06 12:29:19;;;;;;;15.07;13.87;;;;;;;21.54;100.00;99870.03;4791611;29;20654;-89
2022/05/06 12:31:46;;;;;;;15.33;13.83;;;;;;;21.27;100.00;99870.50;4776704;29;20178;-89
2022/05/06 12:34:13;;;;;;;14.40;13.00;;;;;;;21.33;100.00;99868.53;4806281;29;20195;-87
2022/05/06 12:36:40;;;;;;;15.50;14.03;;;;;;;21.07;100.00;99862.44;4776225;29;20244;-88
2022/05/06 12:39:17;;;;;;;15.53;14.33;;;;;;;21.33;100.00;99854.91;4791213;29;20205;-90
2022/05/06 12:41:44;;;;;;;16.20;14.80;;;;;;;20.97;100.00;99849.69;4775571;29;20221;-89
2022/05/06 12:44:23;;;;;;;15.00;13.80;;;;;;;20.96;100.00;99858.13;4785939;29;20206;-89
2022/05/06 12:46:50;;;;;;;15.40;14.03;;;;;;;20.63;100.00;99851.53;4801504;29;20653;-91
2022/05/06 12:52:04;;;;;;;15.87;14.47;;;;;;;19.95;100.00;99847.69;4796611;29;20190;-91
2022/05/06 12:54:32;;;;;;;15.37;14.07;;;;;;;20.23;100.00;99844.31;4794111;29;20249;-89
2022/05/06 12:56:59;;;;;;;15.07;13.87;;;;;;;20.47;100.00;99841.81;4794184;29;20234;-89
2022/05/06 12:59:26;;;;;;;15.53;14.23;;;;;;;20.41;100.00;99826.59;4793503;29;20195;-87
2022/05/06 13:01:53;;;;;;;15.80;14.50;;;;;;;20.63;100.00;99830.56;4793855;29;20275;-91
2022/05/06 13:04:20;;;;;;;15.50;14.03;;;;;;;20.37;100.00;99823.63;4778523;29;20460;-90
2022/05/06 13:06:47;;;;;;;14.87;13.67;;;;;;;20.86;100.00;99820.06;4779213;29;20659;-91
2022/05/06 13:09:14;;;;;;;15.10;13.90;;;;;;;20.69;100.00;99817.75;4778830;29;20195;-89
2022/05/06 13:11:41;;;;;;;15.47;13.90;;;;;;;21.02;100.00;99814.25;4778931;29;20219;-88
2022/05/06 13:14:08;;;;;;;13.93;12.73;;;;;;;21.48;100.00;99817.44;4808625;29;20197;-91
2022/05/06 13:16:35;;;;;;;14.73;13.43;;;;;;;21.65;100.00;99818.94;4821499;29;20945;-92
2022/05/06 13:19:06;;;;;;;13.53;12.33;;;;;;;21.42;100.00;99818.59;4783359;29;20275;-92
2022/05/06 13:21:33;;;;;;;14.80;13.53;;;;;;;20.69;100.00;99811.47;4790233;29;20227;-92
2022/05/06 13:24:00;;;;;;;14.33;13.03;;;;;;;21.27;100.00;99820.66;4807940;29;20279;-91
2022/05/06 13:26:27;;;;;;;13.57;12.37;;;;;;;21.58;100.00;99815.72;4793684;29;20198;-91
2022/05/06 13:28:54;;;;;;;14.00;12.70;;;;;;;21.73;100.00;99810.13;4808145;29;20188;-91
2022/05/06 13:31:21;;;;;;;13.83;12.60;;;;;;;21.25;100.00;99811.94;4793437;29;20206;-91
2022/05/06 13:33:48;;;;;;;13.40;11.97;;;;;;;21.47;100.00;99807.63;4793836;29;20205;-91
2022/05/06 13:36:15;;;;;;;13.57;12.50;;;;;;;20.94;100.00;99806.69;4778808;29;20868;-92
2022/05/06 13:38:42;;;;;;;13.47;12.37;;;;;;;20.79;100.00;99806.78;4793725;29;20212;-92
2022/05/06 13:41:10;;;;;;;13.43;12.33;;;;;;;20.62;100.00;99814.53;4778525;29;20206;-92
2022/05/06 13:43:38;;;;;;;13.67;12.57;;;;;;;20.72;100.00;99808.22;4778977;29;20294;-92
2022/05/06 13:46:04;;;;;;;13.27;12.03;;;;;;;20.28;100.00;99802.69;4793530;29;20258;-93
2022/05/06 13:48:32;;;;;;;12.13;11.10;;;;;;;20.88;100.00;99799.66;4808366;29;20246;-93
2022/05/06 13:50:59;;;;;;;13.27;12.00;;;;;;;20.97;100.00;99794.41;4793568;29;20656;-92
2022/05/06 13:53:26;;;;;;;13.00;11.80;;;;;;;21.32;100.00;99806.97;4778692;29;20651;-92
2022/05/06 14:01:24;;;;;;;12.37;11.37;;;;;;;22.44;100.00;99806.59;4808207;29;20204;-92
2022/05/06 14:03:51;;;;;;;13.27;12.17;;;;;;;22.49;100.00;99807.31;4808111;29;20276;-90
2022/05/06 14:06:18;;;;;;;13.33;12.23;;;;;;;22.65;99.11;99810.66;4793330;29;20674;-91
2022/05/06 14:08:45;;;;;;;13.53;12.33;;;;;;;22.42;100.00;99806.06;4793346;29;20228;-91
2022/05/06 14:11:12;;;;;;;14.00;12.80;;;;;;;21.59;100.00;99814.63;4790157;29;20280;-91
2022/05/06 14:13:39;;;;;;;13.87;12.57;;;;;;;22.01;100.00;99811.22;4775829;29;20229;-92
2022/05/06 14:16:07;;;;;;;13.53;12.40;;;;;;;22.05;100.00;99804.91;4805358;29;20246;-92
2022/05/06 14:18:34;;;;;;;14.10;12.80;;;;;;;21.71;100.00;99802.22;4783735;29;20204;-89
2022/05/06 14:21:02;;;;;;;12.70;11.80;;;;;;;22.18;100.00;99808.84;4791749;29;20198;-87
2022/05/06 14:23:28;;;;;;;14.27;13.07;;;;;;;22.04;100.00;99799.72;4791681;29;20280;-89
2022/05/06 14:25:56;;;;;;;13.20;11.93;;;;;;;21.96;100.00;99795.72;4803638;29;20200;-87
2022/05/06 14:28:24;;;;;;;14.27;12.97;;;;;;;21.49;100.00;99796.47;4823726;29;20204;-93
2022/05/06 14:30:51;;;;;;;12.83;11.63;;;;;;;21.39;100.00;99793.81;4793646;29;20254;-92
2022/05/06 14:33:18;;;;;;;14.40;13.20;;;;;;;21.04;100.00;99786.75;4792964;29;20213;-91
2022/05/06 14:35:46;;;;;;;13.20;12.10;;;;;;;21.37;100.00;99793.31;4790343;29;20669;-91
2022/05/06 14:38:12;;;;;;;14.20;12.90;;;;;;;20.97;100.00;99791.69;4793373;29;20262;-91
2022/05/06 14:40:39;;;;;;;15.13;13.83;;;;;;;21.06;100.00;99792.69;4793530;29;20201;-92
2022/05/06 14:43:06;;;;;;;14.10;12.80;;;;;;;20.64;100.00;99785.91;4792301;29;20231;-91
2022/05/06 14:45:35;;;;;;;13.23;12.13;;;;;;;20.59;100.00;99782.41;4792877;29;20205;-93
2022/05/06 14:48:03;;;;;;;13.87;12.73;;;;;;;20.42;100.00;99779.25;4778689;29;20237;-92
2022/05/06 14:50:32;;;;;;;14.10;12.87;;;;;;;20.49;100.00;99786.00;4778301;29;20200;-92
2022/05/06 14:52:58;;;;;;;12.90;11.90;;;;;;;20.53;100.00;99786.28;4792999;29;20278;-92
2022/05/06 14:55:25;;;;;;;13.43;12.30;;;;;;;20.41;100.00;99791.22;4795160;29;20577;-92
2022/05/06 14:57:56;;;;;;;13.23;12.03;;;;;;;20.44;100.00;99786.03;4796241;29;20204;-92
2022/05/06 15:00:23;;;;;;;13.13;12.03;;;;;;;20.20;100.00;99788.56;4795544;29;20558;-93
2022/05/06 15:02:50;;;;;;;12.97;11.87;;;;;;;20.16;100.00;99794.84;4815659;29;20216;-93
2022/05/06 15:05:17;;;;;;;12.60;11.40;;;;;;;20.39;100.00;99785.25;4778877;29;20204;-93
2022/05/06 15:07:44;;;;;;;12.70;11.53;;;;;;;20.47;100.00;99785.47;4796046;29;20275;-93
2022/05/06 15:10:12;;;;;;;12.90;11.70;;;;;;;20.64;100.00;99787.81;4796149;29;20248;-94
2022/05/06 15:12:39;;;;;;;12.47;11.30;;;;;;;20.82;100.00;99792.59;4796195;29;20286;-93
2022/05/06 15:15:06;;;;;;;12.37;11.27;;;;;;;20.76;100.00;99793.75;4810619;29;20193;-93
2022/05/06 15:17:33;;;;;;;12.57;11.47;;;;;;;21.02;99.80;99795.19;4795442;29;20188;-94
2022/05/06 15:20:00;;;;;;;10.73;9.73;;;;;;;21.00;100.00;99793.84;4792779;29;20744;-93
2022/05/06 15:22:28;;;;;;;11.93;11.03;;;;;;;21.01;100.00;99795.47;4791914;29;20267;-93
2022/05/06 15:24:55;;;;;;;11.73;10.63;;;;;;;20.96;100.00;99795.50;4793330;29;20208;-92
2022/05/06 15:27:22;;;;;;;11.20;10.23;;;;;;;20.95;100.00;99791.97;4777574;29;20223;-93
2022/05/06 15:29:49;;;;;;;12.30;11.10;;;;;;;20.78;100.00;99788.00;4762567;29;20246;-93
2022/05/06 15:32:16;;;;;;;11.63;10.73;;;;;;;20.88;100.00;99787.94;4774071;29;20242;-93
2022/05/06 15:34:43;;;;;;;10.77;9.77;;;;;;;20.92;100.00;99778.91;4795511;29;20205;-92
2022/05/06 15:37:10;;;;;;;11.70;10.80;;;;;;;20.89;100.00;99795.03;4795427;29;20200;-92
2022/05/06 15:39:37;;;;;;;11.30;10.37;;;;;;;20.79;100.00;99792.38;4795514;29;20198;-93
2022/05/06 15:42:04;;;;;;;11.73;10.60;;;;;;;20.51;100.00;99789.28;4795377;29;20257;-92
2022/05/06 15:44:32;;;;;;;11.67;10.63;;;;;;;20.39;100.00;99785.25;4780720;29;20218;-93
2022/05/06 15:47:01;;;;;;;11.73;10.70;;;;;;;20.26;100.00;99777.66;4795248;29;20213;-94